createdAt,value
2019-05-19T00:00:50.242Z,19.37
2019-05-19T00:01:55.629Z,22.25
2019-05-19T00:03:01.243Z,22.82
2019-05-19T00:04:06.706Z,20.02
2019-05-19T00:05:12.523Z,22.22
2019-05-19T00:06:17.843Z,23.87
2019-05-19T00:07:23.620Z,24.60
2019-05-19T00:08:28.922Z,21.48
2019-05-19T00:09:34.047Z,20.75
2019-05-19T00:10:40.086Z,23.00
2019-05-19T00:11:45.238Z,22.73
2019-05-19T00:12:50.632Z,22.95
2019-05-19T00:13:56.048Z,21.95
2019-05-19T00:15:01.676Z,22.20
2019-05-19T00:16:06.897Z,26.37
2019-05-19T00:17:12.370Z,25.30
2019-05-19T00:18:17.472Z,24.50
2019-05-19T00:19:26.767Z,25.25
2019-05-19T00:20:30.115Z,25.68
2019-05-19T00:21:35.501Z,22.70
2019-05-19T00:22:40.748Z,22.32
2019-05-19T00:23:46.097Z,21.65
2019-05-19T00:24:51.335Z,26.25
2019-05-19T00:25:56.974Z,20.72
2019-05-19T00:27:02.180Z,21.35
2019-05-19T00:28:07.665Z,24.43
2019-05-19T00:29:12.865Z,25.10
2019-05-19T00:30:18.396Z,24.70
2019-05-19T00:31:24.053Z,24.25
2019-05-19T00:32:29.387Z,25.23
2019-05-19T00:33:35.357Z,24.18
2019-05-19T00:34:41.258Z,27.85
2019-05-19T00:35:46.441Z,27.98
2019-05-19T00:36:51.755Z,27.40
2019-05-19T00:37:57.434Z,27.37
2019-05-19T00:39:02.722Z,26.20
2019-05-19T00:40:08.487Z,26.52
2019-05-19T00:41:13.923Z,24.65
2019-05-19T00:42:19.529Z,27.35
2019-05-19T00:43:25.199Z,29.18
2019-05-19T00:44:31.110Z,27.90
2019-05-19T00:45:36.572Z,31.15
2019-05-19T00:46:41.875Z,30.30
2019-05-19T00:47:47.255Z,32.45
2019-05-19T00:48:52.915Z,34.58
2019-05-19T00:49:58.243Z,35.55
2019-05-19T00:51:03.532Z,35.23
2019-05-19T00:52:08.816Z,34.50
2019-05-19T00:53:14.408Z,38.58
2019-05-19T00:54:20.282Z,40.63
2019-05-19T00:55:25.629Z,35.98
2019-05-19T00:56:31.507Z,42.05
2019-05-19T00:57:38.266Z,39.95
2019-05-19T00:58:45.527Z,44.77
2019-05-19T00:59:52.210Z,44.93
2019-05-19T01:00:57.891Z,48.73
2019-05-19T01:02:03.489Z,46.42
2019-05-19T01:03:08.842Z,49.88
2019-05-19T01:04:14.058Z,50.25
2019-05-19T01:05:20.797Z,52.62
2019-05-19T01:06:26.041Z,49.13
2019-05-19T01:07:32.071Z,50.90
2019-05-19T01:08:37.209Z,53.90
2019-05-19T01:09:42.664Z,58.38
2019-05-19T01:10:48.191Z,52.53
2019-05-19T01:11:53.908Z,54.58
2019-05-19T01:12:59.126Z,57.05
2019-05-19T01:14:04.883Z,58.65
2019-05-19T01:15:11.146Z,53.42
2019-05-19T01:16:17.177Z,55.80
2019-05-19T01:17:22.675Z,57.50
2019-05-19T01:18:28.266Z,54.45
2019-05-19T01:19:33.929Z,57.80
2019-05-19T01:20:39.455Z,62.27
2019-05-19T01:21:45.594Z,56.20
2019-05-19T01:22:51.078Z,59.98
2019-05-19T01:23:56.967Z,56.28
2019-05-19T01:25:02.296Z,58.92
2019-05-19T01:26:07.531Z,58.60
2019-05-19T01:27:12.953Z,56.42
2019-05-19T01:28:18.380Z,61.68
2019-05-19T01:29:23.713Z,61.20
2019-05-19T01:30:28.944Z,55.55
2019-05-19T01:31:36.429Z,55.90
2019-05-19T01:32:41.923Z,58.40
2019-05-19T01:33:47.233Z,61.02
2019-05-19T01:34:52.679Z,53.05
2019-05-19T01:35:58.264Z,55.73
2019-05-19T01:37:03.410Z,60.25
2019-05-19T01:38:08.744Z,58.83
2019-05-19T01:39:13.961Z,53.70
2019-05-19T01:40:19.632Z,56.42
2019-05-19T01:41:24.789Z,59.70
2019-05-19T01:42:30.099Z,56.20
2019-05-19T01:43:35.334Z,65.15
2019-05-19T01:44:40.981Z,57.17
2019-05-19T01:45:46.188Z,66.70
2019-05-19T01:46:51.494Z,57.43
2019-05-19T01:47:56.969Z,60.63
2019-05-19T01:49:02.348Z,60.65
2019-05-19T01:50:17.405Z,56.42
2019-05-19T01:51:15.271Z,61.50
2019-05-19T01:52:20.500Z,62.35
2019-05-19T01:53:25.921Z,58.83
2019-05-19T01:54:31.184Z,62.30
2019-05-19T01:55:36.860Z,62.53
2019-05-19T01:56:42.658Z,64.00
2019-05-19T01:57:48.303Z,55.83
2019-05-19T01:58:53.433Z,59.00
2019-05-19T01:59:58.833Z,57.98
2019-05-19T02:01:04.135Z,66.33
2019-05-19T02:02:09.574Z,60.40
2019-05-19T02:03:14.781Z,56.95
2019-05-19T02:04:20.086Z,60.52
2019-05-19T02:05:25.233Z,58.70
2019-05-19T02:06:30.568Z,58.17
2019-05-19T02:07:35.880Z,61.33
2019-05-19T02:08:41.284Z,57.45
2019-05-19T02:09:46.553Z,55.35
2019-05-19T02:10:52.241Z,58.85
2019-05-19T02:11:57.734Z,64.47
2019-05-19T02:13:05.176Z,61.50
2019-05-19T02:14:10.005Z,59.98
2019-05-19T02:15:16.999Z,60.83
2019-05-19T02:16:22.109Z,62.75
2019-05-19T02:17:27.422Z,57.10
2019-05-19T02:18:35.415Z,52.13
2019-05-19T02:19:41.257Z,55.50
2019-05-19T02:20:47.640Z,57.95
2019-05-19T02:21:53.347Z,56.08
2019-05-19T02:22:58.543Z,57.67
2019-05-19T02:24:04.020Z,56.35
2019-05-19T02:25:09.639Z,56.08
2019-05-19T02:26:14.962Z,60.52
2019-05-19T02:27:20.075Z,58.90
2019-05-19T02:28:25.454Z,58.95
2019-05-19T02:29:30.878Z,60.67
2019-05-19T02:30:36.390Z,64.47
2019-05-19T02:31:41.612Z,61.05
2019-05-19T02:32:46.910Z,59.40
2019-05-19T02:33:52.333Z,62.60
2019-05-19T02:34:57.898Z,58.00
2019-05-19T02:36:03.090Z,58.70
2019-05-19T02:37:08.750Z,60.30
2019-05-19T02:38:14.289Z,64.15
2019-05-19T02:39:20.212Z,62.58
2019-05-19T02:40:25.600Z,61.05
2019-05-19T02:41:32.857Z,65.12
2019-05-19T02:42:41.590Z,63.10
2019-05-19T02:43:48.302Z,63.13
2019-05-19T02:44:54.003Z,58.23
2019-05-19T02:46:02.209Z,59.70
2019-05-19T02:47:09.295Z,57.20
2019-05-19T02:48:15.190Z,61.45
2019-05-19T02:49:23.365Z,59.65
2019-05-19T02:50:30.800Z,66.55
2019-05-19T02:51:36.723Z,69.42
2019-05-19T02:52:44.628Z,63.92
2019-05-19T02:53:50.741Z,63.40
2019-05-19T02:54:56.764Z,62.20
2019-05-19T02:56:05.113Z,67.78
2019-05-19T02:57:10.512Z,66.65
2019-05-19T02:58:17.042Z,62.75
2019-05-19T02:59:23.207Z,65.08
2019-05-19T03:00:38.868Z,72.30
2019-05-19T03:02:21.434Z,64.03
2019-05-19T03:03:26.400Z,62.93
2019-05-19T03:04:32.565Z,69.70
2019-05-19T03:05:38.244Z,68.22
2019-05-19T03:06:43.796Z,74.00
2019-05-19T03:07:48.722Z,62.33
2019-05-19T03:08:54.210Z,64.95
2019-05-19T03:09:59.452Z,64.42
2019-05-19T03:11:05.270Z,69.72
2019-05-19T03:12:10.598Z,70.22
2019-05-19T03:13:16.183Z,67.67
2019-05-19T03:14:21.126Z,62.93
2019-05-19T03:15:26.626Z,66.50
2019-05-19T03:16:31.874Z,71.47
2019-05-19T03:17:37.920Z,69.82
2019-05-19T03:18:42.928Z,69.22
2019-05-19T03:19:48.414Z,64.03
2019-05-19T03:21:09.902Z,67.22
2019-05-19T03:22:01.083Z,73.20
2019-05-19T03:23:06.037Z,68.95
2019-05-19T03:24:13.289Z,67.17
2019-05-19T03:25:18.656Z,69.00
2019-05-19T03:47:05.264Z,73.70
2019-05-19T03:48:11.058Z,74.22
2019-05-19T03:49:16.299Z,71.47
2019-05-19T03:50:21.877Z,72.05
2019-05-19T03:51:31.346Z,68.67
2019-05-19T03:52:34.633Z,75.12
2019-05-19T03:53:39.885Z,71.77
2019-05-19T03:54:45.458Z,71.53
2019-05-19T03:55:50.913Z,69.75
2019-05-19T03:56:56.691Z,72.30
2019-05-19T03:58:01.662Z,74.03
2019-05-19T03:59:07.151Z,71.07
2019-05-19T04:00:13.428Z,71.80
2019-05-19T04:01:19.150Z,66.42
2019-05-19T04:02:24.101Z,81.17
2019-05-19T04:03:29.618Z,73.12
2019-05-19T04:04:34.576Z,79.45
2019-05-19T04:05:40.209Z,68.55
2019-05-19T04:06:45.164Z,69.03
2019-05-19T04:07:51.016Z,74.72
2019-05-19T04:08:56.283Z,66.57
2019-05-19T04:10:02.202Z,66.92
2019-05-19T04:11:10.378Z,73.78
2019-05-19T04:12:16.133Z,67.65
2019-05-19T04:13:21.450Z,70.57
2019-05-19T04:14:27.247Z,83.00
2019-05-19T04:15:32.854Z,73.50
2019-05-19T04:16:38.617Z,77.15
2019-05-19T04:17:43.795Z,73.85
2019-05-19T04:18:49.369Z,67.58
2019-05-19T04:19:54.374Z,72.47
2019-05-19T04:21:00.182Z,77.42
2019-05-19T04:22:05.180Z,74.27
2019-05-19T04:23:10.760Z,70.57
2019-05-19T04:24:15.926Z,73.28
2019-05-19T04:25:22.044Z,75.80
2019-05-19T04:26:26.983Z,70.37
2019-05-19T04:27:32.501Z,73.45
2019-05-19T04:28:37.449Z,71.60
2019-05-19T04:29:43.070Z,67.47
2019-05-19T04:30:48.438Z,73.10
2019-05-19T04:31:53.945Z,74.17
2019-05-19T04:32:59.127Z,77.35
2019-05-19T04:34:04.781Z,71.72
2019-05-19T04:35:09.870Z,72.87
2019-05-19T04:36:15.391Z,75.72
2019-05-19T04:37:20.390Z,69.87
2019-05-19T04:38:25.884Z,81.92
2019-05-19T04:39:30.898Z,75.65
2019-05-19T04:40:36.643Z,68.35
2019-05-19T04:41:41.603Z,73.67
2019-05-19T04:42:47.377Z,75.42
2019-05-19T04:43:52.358Z,87.08
2019-05-19T04:44:58.162Z,74.62
2019-05-19T04:46:03.122Z,72.32
2019-05-19T04:47:08.649Z,68.78
2019-05-19T04:48:13.694Z,69.70
2019-05-19T04:49:19.222Z,63.08
2019-05-19T04:50:24.334Z,68.85
2019-05-19T04:51:29.907Z,63.52
2019-05-19T04:52:35.695Z,63.35
2019-05-19T04:53:41.499Z,59.65
2019-05-19T04:54:46.686Z,62.15
2019-05-19T04:55:52.470Z,60.92
2019-05-19T04:56:57.393Z,58.68
2019-05-19T04:58:04.326Z,64.72
2019-05-19T04:59:09.176Z,65.62
2019-05-19T05:00:15.649Z,63.75
2019-05-19T05:01:20.791Z,63.48
2019-05-19T05:02:26.338Z,69.27
2019-05-19T05:03:31.532Z,60.50
2019-05-19T05:04:37.365Z,64.15
2019-05-19T05:05:42.572Z,70.10
2019-05-19T05:06:49.815Z,68.60
2019-05-19T05:07:55.524Z,63.73
2019-05-19T05:09:01.382Z,63.20
2019-05-19T05:10:07.820Z,60.43
2019-05-19T05:11:13.618Z,64.00
2019-05-19T05:12:18.659Z,61.13
2019-05-19T05:13:24.492Z,64.62
2019-05-19T05:14:30.039Z,61.35
2019-05-19T05:15:35.523Z,64.07
2019-05-19T05:16:40.558Z,63.10
2019-05-19T05:17:46.552Z,71.45
2019-05-19T05:18:51.505Z,64.10
2019-05-19T05:19:57.071Z,65.12
2019-05-19T05:21:02.007Z,68.97
2019-05-19T05:22:21.240Z,66.80
2019-05-19T05:23:14.248Z,61.68
2019-05-19T05:24:20.260Z,60.43
2019-05-19T05:25:25.263Z,64.50
2019-05-19T05:26:30.844Z,58.98
2019-05-19T05:27:36.059Z,60.88
2019-05-19T05:28:41.892Z,65.95
2019-05-19T05:29:46.910Z,61.65
2019-05-19T05:30:52.717Z,62.75
2019-05-19T05:31:58.068Z,66.02
2019-05-19T05:33:03.679Z,64.42
2019-05-19T05:34:08.757Z,61.40
2019-05-19T05:35:14.387Z,65.95
2019-05-19T05:36:19.523Z,70.67
2019-05-19T05:37:25.019Z,64.45
2019-05-19T05:38:30.005Z,57.13
2019-05-19T05:39:35.499Z,66.72
2019-05-19T05:40:40.676Z,62.00
2019-05-19T05:41:46.293Z,71.62
2019-05-19T05:42:51.512Z,63.30
2019-05-19T05:43:57.097Z,61.60
2019-05-19T05:45:02.286Z,59.00
2019-05-19T05:46:07.854Z,58.87
2019-05-19T05:47:13.027Z,61.50
2019-05-19T05:48:18.744Z,58.48
2019-05-19T05:49:23.671Z,63.10
2019-05-19T05:50:29.745Z,59.08
2019-05-19T05:51:35.044Z,59.05
2019-05-19T05:52:40.888Z,61.02
2019-05-19T05:53:45.907Z,63.13
2019-05-19T05:54:51.505Z,55.88
2019-05-19T05:55:56.807Z,60.55
2019-05-19T05:57:02.553Z,57.80
2019-05-19T05:58:07.568Z,60.03
2019-05-19T05:59:13.051Z,56.75
2019-05-19T06:00:19.431Z,52.60
2019-05-19T06:01:25.292Z,57.83
2019-05-19T06:02:30.308Z,55.98
2019-05-19T06:03:35.866Z,57.58
2019-05-19T06:04:41.131Z,59.58
2019-05-19T06:05:46.759Z,53.90
2019-05-19T06:06:51.708Z,57.40
2019-05-19T06:07:57.240Z,57.35
2019-05-19T06:09:02.532Z,57.95
2019-05-19T06:10:09.206Z,61.42
2019-05-19T06:11:14.585Z,56.65
2019-05-19T06:12:20.271Z,53.55
2019-05-19T06:13:25.301Z,60.63
2019-05-19T06:14:30.876Z,57.95
2019-05-19T06:15:36.128Z,55.98
2019-05-19T06:16:42.180Z,51.95
2019-05-19T06:17:47.183Z,52.90
2019-05-19T06:18:52.712Z,59.03
2019-05-19T06:19:57.687Z,50.75
2019-05-19T06:21:03.431Z,52.40
2019-05-19T06:33:40.117Z,54.35
2019-05-19T06:34:46.031Z,49.67
2019-05-19T06:35:51.158Z,53.13
2019-05-19T06:36:57.164Z,48.78
2019-05-19T06:38:02.905Z,55.05
2019-05-19T06:39:09.006Z,57.20
2019-05-19T06:40:14.267Z,52.93
2019-05-19T06:41:19.863Z,51.53
2019-05-19T06:42:24.792Z,48.13
2019-05-19T06:43:30.308Z,51.90
2019-05-19T06:44:35.196Z,57.53
2019-05-19T06:45:40.773Z,56.37
2019-05-19T06:46:45.707Z,53.40
2019-05-19T06:47:51.228Z,53.10
2019-05-19T06:48:56.464Z,54.30
2019-05-19T06:50:02.395Z,51.30
2019-05-19T06:51:07.400Z,58.52
2019-05-19T06:52:12.965Z,53.15
2019-05-19T06:53:18.252Z,53.80
2019-05-19T06:54:23.735Z,50.05
2019-05-19T06:55:28.724Z,50.03
2019-05-19T06:56:34.184Z,53.13
2019-05-19T06:57:39.112Z,49.18
2019-05-19T06:58:44.611Z,50.70
2019-05-19T06:59:49.584Z,51.23
2019-05-19T07:00:55.113Z,52.30
2019-05-19T07:02:00.090Z,51.92
2019-05-19T07:03:05.665Z,50.70
2019-05-19T07:04:10.673Z,53.60
2019-05-19T07:05:16.326Z,46.48
2019-05-19T07:06:21.566Z,50.38
2019-05-19T07:07:27.050Z,51.18
2019-05-19T07:08:32.464Z,52.38
2019-05-19T07:09:38.115Z,49.77
2019-05-19T07:10:43.207Z,46.77
2019-05-19T07:11:48.868Z,51.35
2019-05-19T07:12:54.053Z,49.20
2019-05-19T07:14:02.897Z,52.83
2019-05-19T07:15:07.504Z,49.63
2019-05-19T07:16:13.233Z,49.85
2019-05-19T07:17:18.157Z,51.08
2019-05-19T07:18:23.747Z,50.63
2019-05-19T07:19:28.798Z,52.17
2019-05-19T07:20:34.392Z,52.75
2019-05-19T07:21:39.666Z,51.00
2019-05-19T07:22:45.165Z,49.42
2019-05-19T07:23:50.167Z,50.60
2019-05-19T07:24:56.631Z,49.73
2019-05-19T07:26:01.593Z,47.33
2019-05-19T07:27:09.986Z,49.77
2019-05-19T07:28:15.244Z,52.08
2019-05-19T07:29:20.844Z,52.00
2019-05-19T07:30:26.169Z,48.30
2019-05-19T07:31:32.253Z,45.90
2019-05-19T07:32:37.259Z,47.83
2019-05-19T07:33:43.391Z,45.75
2019-05-19T07:34:48.654Z,47.13
2019-05-19T07:35:54.150Z,46.35
2019-05-19T07:36:59.418Z,44.50
2019-05-19T07:38:07.435Z,51.23
2019-05-19T07:39:12.024Z,47.13
2019-05-19T07:40:17.708Z,47.50
2019-05-19T07:41:22.652Z,48.83
2019-05-19T07:42:28.240Z,56.10
2019-05-19T07:43:33.471Z,46.18
2019-05-19T07:44:39.479Z,46.30
2019-05-19T07:45:44.736Z,48.90
2019-05-19T07:46:50.207Z,49.15
2019-05-19T07:47:55.255Z,47.93
2019-05-19T07:49:01.012Z,45.73
2019-05-19T07:50:06.008Z,48.13
2019-05-19T07:51:11.747Z,48.90
2019-05-19T07:52:16.734Z,47.35
2019-05-19T07:53:22.243Z,48.38
2019-05-19T07:54:27.474Z,47.95
2019-05-19T07:55:33.026Z,49.25
2019-05-19T07:56:37.949Z,53.65
2019-05-19T07:57:43.700Z,48.02
2019-05-19T07:58:48.707Z,48.60
2019-05-19T07:59:54.201Z,49.80
2019-05-19T08:00:59.267Z,47.10
2019-05-19T08:02:04.902Z,51.58
2019-05-19T08:03:09.912Z,44.73
2019-05-19T08:04:15.439Z,47.48
2019-05-19T08:05:20.498Z,50.30
2019-05-19T08:06:26.227Z,51.70
2019-05-19T08:07:31.523Z,51.40
2019-05-19T08:08:37.009Z,49.58
2019-05-19T08:09:42.263Z,47.85
2019-05-19T08:10:47.771Z,48.80
2019-05-19T08:11:52.765Z,47.30
2019-05-19T08:12:58.245Z,49.25
2019-05-19T08:14:03.335Z,50.28
2019-05-19T08:15:09.609Z,52.83
2019-05-19T08:16:14.608Z,48.70
2019-05-19T08:17:20.189Z,48.87
2019-05-19T08:18:25.624Z,50.48
2019-05-19T08:19:31.138Z,47.25
2019-05-19T08:20:36.188Z,47.88
2019-05-19T08:21:41.740Z,47.20
2019-05-19T08:22:46.781Z,47.95
2019-05-19T08:24:00.360Z,42.83
2019-05-19T08:24:59.915Z,49.67
2019-05-19T08:26:06.127Z,45.90
2019-05-19T08:27:11.149Z,43.45
2019-05-19T08:28:16.700Z,51.02
2019-05-19T08:29:21.944Z,49.23
2019-05-19T08:30:27.485Z,43.87
2019-05-19T08:31:33.072Z,49.30
2019-05-19T08:32:38.656Z,46.37
2019-05-19T08:33:43.869Z,43.15
2019-05-19T08:34:49.398Z,45.88
2019-05-19T08:35:54.435Z,46.90
2019-05-19T08:37:00.178Z,42.30
2019-05-19T08:38:05.211Z,43.85
2019-05-19T08:39:10.873Z,42.55
2019-05-19T08:40:16.307Z,45.23
2019-05-19T08:41:22.086Z,46.60
2019-05-19T08:42:27.018Z,50.90
2019-05-19T08:43:32.556Z,42.03
2019-05-19T08:44:37.750Z,47.62
2019-05-19T08:45:43.285Z,45.00
2019-05-19T08:46:48.317Z,43.58
2019-05-19T08:47:53.798Z,47.55
2019-05-19T08:48:58.727Z,43.73
2019-05-19T08:50:04.553Z,39.75
2019-05-19T08:51:09.824Z,41.25
2019-05-19T08:52:15.340Z,44.88
2019-05-19T08:53:20.336Z,42.88
2019-05-19T08:54:26.152Z,44.48
2019-05-19T08:55:31.167Z,41.28
2019-05-19T08:56:36.816Z,41.77
2019-05-19T08:57:41.823Z,43.00
2019-05-19T08:58:47.614Z,44.63
2019-05-19T08:59:52.640Z,41.88
2019-05-19T09:00:58.152Z,40.90
2019-05-19T09:02:03.142Z,41.65
2019-05-19T09:03:08.917Z,42.40
2019-05-19T09:04:13.840Z,40.60
2019-05-19T09:05:19.576Z,44.18
2019-05-19T09:06:24.634Z,38.20
2019-05-19T09:07:30.390Z,44.20
2019-05-19T09:08:35.658Z,40.73
2019-05-19T09:09:41.237Z,40.35
2019-05-19T09:10:46.355Z,36.63
2019-05-19T09:11:51.829Z,44.93
2019-05-19T09:12:57.282Z,39.60
2019-05-19T09:14:03.164Z,38.78
2019-05-19T09:15:08.728Z,35.83
2019-05-19T09:16:14.309Z,41.40
2019-05-19T09:17:19.268Z,36.65
2019-05-19T09:18:24.735Z,36.38
2019-05-19T09:19:29.860Z,39.15
2019-05-19T09:20:35.536Z,35.55
2019-05-19T09:21:40.527Z,41.53
2019-05-19T09:22:46.065Z,41.00
2019-05-19T09:23:51.514Z,37.38
2019-05-19T09:24:56.999Z,35.88
2019-05-19T09:26:01.976Z,35.63
2019-05-19T09:27:07.683Z,32.38
2019-05-19T09:28:12.704Z,31.27
2019-05-19T09:29:18.241Z,31.48
2019-05-19T09:30:23.264Z,31.30
2019-05-19T09:31:29.199Z,31.57
2019-05-19T09:32:34.243Z,31.93
2019-05-19T09:33:39.743Z,28.40
2019-05-19T09:34:44.680Z,30.15
2019-05-19T09:35:50.191Z,29.90
2019-05-19T09:36:55.187Z,27.95
2019-05-19T09:38:00.980Z,33.60
2019-05-19T09:39:07.131Z,31.48
2019-05-19T09:40:13.156Z,32.58
2019-05-19T09:41:18.093Z,28.90
2019-05-19T09:42:23.999Z,26.70
2019-05-19T09:43:28.975Z,27.62
2019-05-19T09:44:34.726Z,30.23
2019-05-19T09:45:39.653Z,30.72
2019-05-19T09:46:45.152Z,31.03
2019-05-19T09:47:50.348Z,33.20
2019-05-19T09:49:14.606Z,32.67
2019-05-19T09:50:19.972Z,29.67
2019-05-19T09:51:25.629Z,27.93
2019-05-19T09:52:30.681Z,31.60
2019-05-19T09:53:36.423Z,32.87
2019-05-19T09:54:45.466Z,27.40
2019-05-19T09:55:49.238Z,27.98
2019-05-19T09:56:54.181Z,22.25
2019-05-19T09:57:59.923Z,23.95
2019-05-19T09:59:05.019Z,22.87
2019-05-19T10:00:13.163Z,22.10
2019-05-19T10:01:18.097Z,21.62
2019-05-19T10:02:23.956Z,25.52
2019-05-19T10:03:28.880Z,23.80
2019-05-19T10:04:34.890Z,18.47
2019-05-19T10:05:40.092Z,22.00
2019-05-19T10:06:45.596Z,20.27
2019-05-19T10:07:50.780Z,17.67
2019-05-19T10:09:14.685Z,18.42
2019-05-19T10:10:22.969Z,18.17
2019-05-19T10:11:52.482Z,16.03
2019-05-19T10:12:57.426Z,15.55
2019-05-19T10:14:03.240Z,18.63
2019-05-19T10:15:09.053Z,18.70
2019-05-19T10:16:14.631Z,19.57
2019-05-19T10:17:20.049Z,19.93
2019-05-19T10:18:25.700Z,16.67
2019-05-19T10:19:30.866Z,16.85
2019-05-19T10:20:36.428Z,16.73
2019-05-19T10:21:41.461Z,16.63
2019-05-19T10:22:47.231Z,16.67
2019-05-19T10:23:52.164Z,20.87
2019-05-19T10:25:18.121Z,19.17
2019-05-19T10:26:04.463Z,18.32
2019-05-19T10:27:10.185Z,21.53
2019-05-19T10:28:15.252Z,22.97
2019-05-19T10:29:20.844Z,15.80
2019-05-19T10:30:25.841Z,15.97
2019-05-19T10:31:31.638Z,15.83
2019-05-19T10:32:37.281Z,20.17
2019-05-19T10:33:42.769Z,16.40
2019-05-19T10:34:47.712Z,15.67
2019-05-19T10:35:53.503Z,17.70
2019-05-19T10:36:58.671Z,18.80
2019-05-19T10:38:04.918Z,19.60
2019-05-19T10:39:09.951Z,22.93
2019-05-19T10:40:15.751Z,20.53
2019-05-19T10:41:20.833Z,18.17
2019-05-19T10:42:26.565Z,20.57
2019-05-19T10:43:31.772Z,20.97
2019-05-19T10:44:37.319Z,20.30
2019-05-19T10:45:44.004Z,18.47
2019-05-19T10:46:49.624Z,24.07
2019-05-19T10:47:54.577Z,19.50
2019-05-19T10:49:00.299Z,17.67
2019-05-19T10:50:05.361Z,19.70
2019-05-19T10:51:11.255Z,18.13
2019-05-19T10:52:16.876Z,19.77
2019-05-19T10:53:22.597Z,16.63
2019-05-19T10:54:27.603Z,17.97
2019-05-19T10:55:36.636Z,15.27
2019-05-19T10:56:39.912Z,18.93
2019-05-19T10:57:45.434Z,17.83
2019-05-19T10:58:50.445Z,16.17
2019-05-19T10:59:55.938Z,15.23
2019-05-19T11:01:00.921Z,18.45
2019-05-19T11:02:06.560Z,16.30
2019-05-19T11:03:11.556Z,16.93
2019-05-19T11:04:17.289Z,15.10
2019-05-19T11:05:22.578Z,15.50
2019-05-19T11:06:28.064Z,17.70
2019-05-19T11:07:33.255Z,15.20
2019-05-19T11:08:39.002Z,19.07
2019-05-19T11:09:44.504Z,19.73
2019-05-19T11:10:50.091Z,17.53
2019-05-19T11:11:55.072Z,17.77
2019-05-19T11:13:00.578Z,19.60
2019-05-19T11:14:05.659Z,16.70
2019-05-19T11:15:11.420Z,16.20
2019-05-19T11:16:16.476Z,16.20
2019-05-19T11:17:22.000Z,15.07
2019-05-19T11:18:27.297Z,16.30
2019-05-19T11:19:32.985Z,14.60
2019-05-19T11:20:38.516Z,15.53
2019-05-19T11:21:44.337Z,18.60
2019-05-19T11:22:49.257Z,14.73
2019-05-19T11:23:55.172Z,17.27
2019-05-19T11:25:00.422Z,17.63
2019-05-19T11:26:06.303Z,16.07
2019-05-19T11:27:11.553Z,20.30
2019-05-19T11:28:17.060Z,15.27
2019-05-19T11:29:22.304Z,16.67
2019-05-19T11:30:27.848Z,16.17
2019-05-19T11:31:33.139Z,15.33
2019-05-19T11:32:38.894Z,15.17
2019-05-19T11:33:43.827Z,14.43
2019-05-19T11:34:49.342Z,14.17
2019-05-19T11:35:54.302Z,14.07
2019-05-19T11:36:59.901Z,16.00
2019-05-19T11:38:05.147Z,14.60
2019-05-19T11:39:11.004Z,19.23
2019-05-19T11:40:16.055Z,21.00
2019-05-19T11:41:21.585Z,16.83
2019-05-19T11:42:26.509Z,15.10
2019-05-19T11:43:32.228Z,18.00
2019-05-19T11:44:37.406Z,16.37
2019-05-19T11:45:43.212Z,17.40
2019-05-19T11:46:48.186Z,16.87
2019-05-19T11:47:53.803Z,18.50
2019-05-19T11:48:59.037Z,15.60
2019-05-19T11:50:05.126Z,14.47
2019-05-19T11:51:10.139Z,15.90
2019-05-19T11:52:16.178Z,17.40
2019-05-19T11:53:21.624Z,18.97
2019-05-19T11:54:27.121Z,19.53
2019-05-19T11:55:32.525Z,18.97
2019-05-19T11:56:38.352Z,19.30
2019-05-19T11:57:43.317Z,21.23
2019-05-19T11:58:48.826Z,18.73
2019-05-19T11:59:54.316Z,16.40
2019-05-19T12:01:00.275Z,16.70
2019-05-19T12:02:05.275Z,17.57
2019-05-19T12:03:10.815Z,18.50
2019-05-19T12:04:15.758Z,20.90
2019-05-19T12:05:21.373Z,17.40
2019-05-19T12:06:38.535Z,16.83
2019-05-19T12:07:34.047Z,21.03
2019-05-19T12:08:39.306Z,18.83
2019-05-19T12:09:45.121Z,19.93
2019-05-19T12:10:50.088Z,18.20
2019-05-19T12:11:55.589Z,16.60
2019-05-19T12:13:00.685Z,17.10
2019-05-19T12:14:06.308Z,17.67
2019-05-19T12:15:11.763Z,16.00
2019-05-19T12:16:17.394Z,15.23
2019-05-19T12:17:22.738Z,14.13
2019-05-19T12:18:28.344Z,16.17
2019-05-19T12:19:33.365Z,15.40
2019-05-19T12:20:38.898Z,14.93
2019-05-19T12:21:44.243Z,16.30
2019-05-19T12:22:49.803Z,16.90
2019-05-19T12:23:55.077Z,19.50
2019-05-19T12:25:00.657Z,15.97
2019-05-19T12:26:06.904Z,14.50
2019-05-19T12:27:12.884Z,14.87
2019-05-19T12:28:18.065Z,16.17
2019-05-19T12:29:23.547Z,17.20
2019-05-19T12:30:28.628Z,15.53
2019-05-19T12:31:34.161Z,12.00
2019-05-19T12:32:39.449Z,15.53
2019-05-19T12:33:51.977Z,13.53
2019-05-19T12:34:51.897Z,14.93
2019-05-19T12:35:57.791Z,17.27
2019-05-19T12:37:02.695Z,14.40
2019-05-19T12:38:08.230Z,12.87
2019-05-19T12:39:13.494Z,11.30
2019-05-19T12:40:22.475Z,12.73
2019-05-19T12:41:25.813Z,11.97
2019-05-19T12:42:31.271Z,11.23
2019-05-19T12:43:36.281Z,11.50
2019-05-19T12:44:41.861Z,14.13
2019-05-19T12:45:46.800Z,11.63
2019-05-19T12:46:52.275Z,12.80
2019-05-19T12:47:57.433Z,12.50
2019-05-19T12:49:03.005Z,11.80
2019-05-19T12:50:08.513Z,11.43
2019-05-19T12:51:14.088Z,13.20
2019-05-19T12:52:19.142Z,11.77
2019-05-19T12:53:24.735Z,12.17
2019-05-19T12:54:30.164Z,10.60
2019-05-19T12:55:35.711Z,10.83
2019-05-19T12:56:40.947Z,13.77
2019-05-19T12:57:46.507Z,11.07
2019-05-19T12:58:51.509Z,8.50
2019-05-19T12:59:57.060Z,9.77
2019-05-19T13:01:01.997Z,9.33
2019-05-19T13:02:07.803Z,9.90
2019-05-19T13:03:12.714Z,8.57
2019-05-19T13:04:19.014Z,8.50
2019-05-19T13:05:24.027Z,7.17
2019-05-19T13:06:30.159Z,8.53
2019-05-19T13:07:35.179Z,7.23
2019-05-19T13:08:40.775Z,7.57
2019-05-19T13:09:46.031Z,7.43
2019-05-19T13:10:51.510Z,9.80
2019-05-19T13:11:56.667Z,7.27
2019-05-19T13:13:02.489Z,7.80
2019-05-19T13:14:07.609Z,7.87
2019-05-19T13:15:15.577Z,7.60
2019-05-19T13:16:20.073Z,7.53
2019-05-19T13:17:25.656Z,7.27
2019-05-19T13:18:30.849Z,7.97
2019-05-19T13:19:36.587Z,7.23
2019-05-19T13:20:41.533Z,7.20
2019-05-19T13:21:47.255Z,7.80
2019-05-19T13:22:52.154Z,6.87
2019-05-19T13:23:58.425Z,9.10
2019-05-19T13:25:03.439Z,7.30
2019-05-19T13:26:09.061Z,7.23
2019-05-19T13:27:14.016Z,7.47
2019-05-19T13:30:35.456Z,7.30
2019-05-19T13:31:40.984Z,9.63
2019-05-19T13:32:45.923Z,7.37
2019-05-19T13:33:51.608Z,9.63
2019-05-19T13:34:56.782Z,8.30
2019-05-19T13:36:02.322Z,8.23
2019-05-19T13:37:07.361Z,8.70
2019-05-19T13:38:13.070Z,7.83
2019-05-19T13:39:18.192Z,6.90
2019-05-19T13:40:23.820Z,7.30
2019-05-19T13:41:29.007Z,8.10
2019-05-19T13:42:34.443Z,7.17
2019-05-19T13:43:39.405Z,7.07
2019-05-19T13:44:45.098Z,8.43
2019-05-19T13:45:50.018Z,12.37
2019-05-19T13:46:55.715Z,7.30
2019-05-19T13:48:00.855Z,7.03
2019-05-19T13:49:06.368Z,7.20
2019-05-19T13:50:11.719Z,7.80
2019-05-19T13:51:17.167Z,7.27
2019-05-19T13:52:22.051Z,8.30
2019-05-19T13:53:27.743Z,8.27
2019-05-19T13:54:32.728Z,7.13
2019-05-19T13:55:38.497Z,7.27
2019-05-19T13:56:43.650Z,7.87
2019-05-19T13:57:49.178Z,7.60
2019-05-19T13:58:54.164Z,7.10
2019-05-19T13:59:59.857Z,9.50
2019-05-19T14:01:05.270Z,7.73
2019-05-19T14:02:10.791Z,6.70
2019-05-19T14:03:15.859Z,6.30
2019-05-19T14:04:21.320Z,8.30
2019-05-19T14:05:26.248Z,6.00
2019-05-19T14:06:31.826Z,5.93
2019-05-19T14:07:37.056Z,8.37
2019-05-19T14:08:42.772Z,5.43
2019-05-19T14:09:47.678Z,5.67
2019-05-19T14:10:53.145Z,8.33
2019-05-19T14:11:58.170Z,20.93
2019-05-19T14:13:03.714Z,5.23
2019-05-19T14:14:08.694Z,5.30
2019-05-19T14:15:14.665Z,8.40
2019-05-19T14:16:19.917Z,5.20
2019-05-19T14:17:25.452Z,4.50
2019-05-19T14:18:30.399Z,3.83
2019-05-19T14:19:35.909Z,5.77
2019-05-19T14:20:41.170Z,11.93
2019-05-19T14:21:46.791Z,7.70
2019-05-19T14:22:51.760Z,6.23
2019-05-19T14:23:57.230Z,4.17
2019-05-19T14:25:02.309Z,9.30
2019-05-19T14:26:07.991Z,6.30
2019-05-19T14:27:17.146Z,6.77
2019-05-19T14:28:20.408Z,4.83
2019-05-19T14:29:25.400Z,5.03
2019-05-19T14:30:30.906Z,4.53
2019-05-19T14:31:36.055Z,4.20
2019-05-19T14:32:41.550Z,5.25
2019-05-19T14:33:46.471Z,7.27
2019-05-19T14:34:52.168Z,5.70
2019-05-19T14:35:57.357Z,5.62
2019-05-19T14:37:02.926Z,3.70
2019-05-19T14:38:08.064Z,3.77
2019-05-19T14:39:13.550Z,4.70
2019-05-19T14:40:20.329Z,5.10
2019-05-19T14:41:33.144Z,4.70
2019-05-19T14:43:00.627Z,3.37
2019-05-19T14:44:05.786Z,3.85